Time;durP1;ratioP1;P1;durP2;ratioP2;P2;SDS_P1;SDS_P2;PMS_P1;PMS_P2;Temp;Humidity;BMP_temperature;BMP_pressure;BME280_temperature;BME280_humidity;BME280_pressure;Samples;Min_cycle;Max_cycle;Signal;HPM_P1;HPM_P2
2021/01/09 00:02:14;;;;;;;14.13;9.20;;;;;;;;;;5107625;28;20464;-68
2021/01/09 00:04:41;;;;;;;13.03;8.23;;;;;;;;;;5109141;28;21010;-69
2021/01/09 00:07:07;;;;;;;13.77;8.17;;;;;;;;;;5107306;28;20459;-69
2021/01/09 00:09:34;;;;;;;13.30;8.90;;;;;;;;;;5099431;28;22140;-69
2021/01/09 00:12:01;;;;;;;12.50;7.97;;;;;;;;;;5106361;28;20446;-68
2021/01/09 00:14:27;;;;;;;15.07;8.30;;;;;;;;;;5107551;28;20452;-69
2021/01/09 00:16:55;;;;;;;12.57;7.73;;;;;;;;;;5105328;28;20467;-69
2021/01/09 00:19:21;;;;;;;9.97;7.80;;;;;;;;;;5102921;28;20463;-69
2021/01/09 00:21:48;;;;;;;14.90;8.40;;;;;;;;;;5106084;28;20891;-68
2021/01/09 00:24:14;;;;;;;13.23;8.10;;;;;;;;;;5103831;28;20470;-68
2021/01/09 00:26:41;;;;;;;13.30;8.60;;;;;;;;;;5105429;28;20808;-69
2021/01/09 00:29:08;;;;;;;11.53;7.60;;;;;;;;;;5108243;28;20470;-68
2021/01/09 00:31:34;;;;;;;12.10;7.93;;;;;;;;;;5103220;27;20452;-69
2021/01/09 00:34:02;;;;;;;13.57;8.50;;;;;;;;;;5111460;27;21022;-69
2021/01/09 00:36:28;;;;;;;10.53;7.20;;;;;;;;;;5108425;27;20470;-69
2021/01/09 00:38:55;;;;;;;11.10;7.37;;;;;;;;;;5105545;27;20470;-68
2021/01/09 00:41:28;;;;;;;12.73;8.40;;;;;;;;;;5108799;27;20451;-69
2021/01/09 00:43:55;;;;;;;11.80;7.17;;;;;;;;;;5110704;27;20475;-68
2021/01/09 00:46:22;;;;;;;12.43;8.43;;;;;;;;;;5105445;27;20452;-69
2021/01/09 00:48:48;;;;;;;12.70;7.97;;;;;;;;;;5109534;27;20470;-69
2021/01/09 00:51:16;;;;;;;13.13;8.53;;;;;;;;;;5103434;27;20870;-69
2021/01/09 00:53:43;;;;;;;12.27;8.27;;;;;;;;;;5108775;27;20431;-68
2021/01/09 00:56:10;;;;;;;12.37;8.40;;;;;;;;;;5108313;28;20431;-69
2021/01/09 00:58:36;;;;;;;14.97;9.40;;;;;;;;;;5111554;27;20470;-69
2021/01/09 01:01:03;;;;;;;13.80;8.30;;;;;;;;;;5110358;27;20450;-69
2021/01/09 01:03:30;;;;;;;15.47;9.20;;;;;;;;;;5110318;27;20471;-69
2021/01/09 01:05:56;;;;;;;12.67;7.80;;;;;;;;;;5107976;27;20448;-69
2021/01/09 01:08:24;;;;;;;12.80;6.83;;;;;;;;;;5109906;27;20456;-68
2021/01/09 01:10:50;;;;;;;15.93;9.23;;;;;;;;;;5107268;27;20447;-69
2021/01/09 01:13:17;;;;;;;12.33;7.80;;;;;;;;;;5104296;27;20888;-69
2021/01/09 01:15:44;;;;;;;12.60;6.97;;;;;;;;;;5109005;27;20447;-69
2021/01/09 01:18:10;;;;;;;14.50;8.67;;;;;;;;;;5104475;27;20481;-69
2021/01/09 01:20:37;;;;;;;14.47;8.30;;;;;;;;;;5106375;27;20447;-69
2021/01/09 01:23:04;;;;;;;13.50;8.43;;;;;;;;;;5103779;27;20478;-69
2021/01/09 01:25:31;;;;;;;12.13;8.17;;;;;;;;;;5101892;28;20455;-69
2021/01/09 01:27:58;;;;;;;14.10;8.00;;;;;;;;;;5104196;28;20467;-69
2021/01/09 01:30:24;;;;;;;11.80;8.27;;;;;;;;;;5104579;27;20835;-69
2021/01/09 01:32:51;;;;;;;11.37;7.17;;;;;;;;;;5106778;27;20516;-69
2021/01/09 01:35:17;;;;;;;13.97;8.77;;;;;;;;;;5108528;27;20451;-69
2021/01/09 01:37:44;;;;;;;15.70;8.87;;;;;;;;;;5111429;27;21077;-69
2021/01/09 01:40:11;;;;;;;13.50;8.50;;;;;;;;;;5103984;27;20448;-69
2021/01/09 01:42:39;;;;;;;14.53;8.40;;;;;;;;;;5109540;27;20532;-69
2021/01/09 01:45:08;;;;;;;12.90;8.20;;;;;;;;;;5110631;27;20863;-69
2021/01/09 01:47:35;;;;;;;12.23;8.20;;;;;;;;;;5114496;27;20467;-70
2021/01/09 01:50:02;;;;;;;13.83;8.43;;;;;;;;;;5110403;27;20455;-69
2021/01/09 01:52:28;;;;;;;21.03;9.60;;;;;;;;;;5106491;27;20462;-70
2021/01/09 01:54:55;;;;;;;13.67;8.90;;;;;;;;;;5108003;28;20967;-69
2021/01/09 01:57:21;;;;;;;15.20;8.33;;;;;;;;;;5106245;27;21050;-69
2021/01/09 01:59:49;;;;;;;14.93;8.40;;;;;;;;;;5112826;27;20510;-68
2021/01/09 02:02:16;;;;;;;16.13;8.23;;;;;;;;;;5107279;27;20459;-69
2021/01/09 02:04:42;;;;;;;13.43;8.60;;;;;;;;;;5108405;28;20482;-69
2021/01/09 02:07:12;;;;;;;14.10;8.67;;;;;;;;;;5105112;27;20831;-70
2021/01/09 02:09:41;;;;;;;19.20;9.37;;;;;;;;;;5105675;27;20959;-69
2021/01/09 02:12:11;;;;;;;13.93;9.60;;;;;;;;;;5101798;27;20463;-69
2021/01/09 02:14:39;;;;;;;13.93;8.10;;;;;;;;;;5114025;27;20444;-69
2021/01/09 02:17:07;;;;;;;13.60;9.57;;;;;;;;;;5109465;27;20448;-69
2021/01/09 02:19:35;;;;;;;11.77;9.20;;;;;;;;;;5104791;27;20509;-69
2021/01/09 02:22:04;;;;;;;17.37;9.47;;;;;;;;;;5108507;27;20450;-69
2021/01/09 02:24:32;;;;;;;16.37;8.70;;;;;;;;;;5106092;28;20479;-69
2021/01/09 02:26:58;;;;;;;11.00;9.07;;;;;;;;;;5110747;27;21208;-69
2021/01/09 02:29:25;;;;;;;16.50;9.47;;;;;;;;;;5110997;27;20956;-69
2021/01/09 02:31:55;;;;;;;14.23;8.40;;;;;;;;;;5111401;27;20457;-70
2021/01/09 02:34:22;;;;;;;11.90;8.30;;;;;;;;;;5113856;27;20446;-69
2021/01/09 02:36:49;;;;;;;12.70;9.80;;;;;;;;;;5108459;27;20599;-69
2021/01/09 02:39:16;;;;;;;13.83;8.80;;;;;;;;;;5106230;27;20470;-69
2021/01/09 02:41:44;;;;;;;16.23;9.20;;;;;;;;;;5097916;27;20448;-69
2021/01/09 02:44:11;;;;;;;14.57;9.10;;;;;;;;;;5111880;27;20481;-69
2021/01/09 02:46:38;;;;;;;12.23;9.00;;;;;;;;;;5108196;27;20586;-69
2021/01/09 02:49:05;;;;;;;12.57;8.70;;;;;;;;;;5106422;27;20470;-69
2021/01/09 02:51:32;;;;;;;13.43;8.87;;;;;;;;;;5098371;28;20460;-69
2021/01/09 02:53:58;;;;;;;18.27;8.57;;;;;;;;;;5110175;27;20538;-69
2021/01/09 02:56:25;;;;;;;15.20;7.80;;;;;;;;;;5105833;27;20513;-69
2021/01/09 02:58:52;;;;;;;12.47;9.10;;;;;;;;;;5114453;27;20971;-69
2021/01/09 03:01:19;;;;;;;16.27;9.73;;;;;;;;;;5121120;27;20457;-69
2021/01/09 03:03:46;;;;;;;12.60;7.90;;;;;;;;;;5111570;27;21280;-69
2021/01/09 03:06:12;;;;;;;14.43;9.67;;;;;;;;;;5108311;27;20474;-69
2021/01/09 03:08:39;;;;;;;15.27;9.30;;;;;;;;;;5111019;27;20466;-69
2021/01/09 03:11:05;;;;;;;13.60;9.13;;;;;;;;;;5106614;27;20450;-69
2021/01/09 03:13:32;;;;;;;14.33;8.83;;;;;;;;;;5100511;28;21324;-69
2021/01/09 03:15:59;;;;;;;16.50;8.90;;;;;;;;;;5106977;27;20454;-69
2021/01/09 03:18:26;;;;;;;14.27;9.50;;;;;;;;;;5108235;27;20483;-69
2021/01/09 03:20:53;;;;;;;14.20;9.50;;;;;;;;;;5106851;27;20450;-69
2021/01/09 03:23:19;;;;;;;13.70;9.13;;;;;;;;;;5102816;27;20509;-69
2021/01/09 03:25:46;;;;;;;17.70;11.10;;;;;;;;;;5110578;27;21028;-69
2021/01/09 03:28:12;;;;;;;13.70;8.40;;;;;;;;;;5103620;28;20485;-69
2021/01/09 03:30:39;;;;;;;18.80;10.43;;;;;;;;;;5103398;27;20463;-69
2021/01/09 03:33:07;;;;;;;15.77;9.87;;;;;;;;;;5110504;27;20844;-69
2021/01/09 03:35:33;;;;;;;15.17;10.80;;;;;;;;;;5111574;27;21195;-69
2021/01/09 03:38:00;;;;;;;16.70;10.70;;;;;;;;;;5098249;27;20477;-69
2021/01/09 03:40:27;;;;;;;14.47;10.03;;;;;;;;;;5110047;28;20443;-69
2021/01/09 03:42:53;;;;;;;15.50;9.30;;;;;;;;;;5106895;28;20451;-69
2021/01/09 03:45:20;;;;;;;14.23;9.47;;;;;;;;;;5107468;28;20452;-69
2021/01/09 03:47:46;;;;;;;16.87;10.60;;;;;;;;;;5107162;28;20486;-69
2021/01/09 03:50:14;;;;;;;17.07;9.90;;;;;;;;;;5097303;28;20456;-69
2021/01/09 03:52:40;;;;;;;14.00;9.30;;;;;;;;;;5098072;28;20831;-69
2021/01/09 03:55:08;;;;;;;15.30;10.50;;;;;;;;;;5114810;28;20443;-69
2021/01/09 03:57:34;;;;;;;17.07;9.67;;;;;;;;;;5105425;28;20467;-69
2021/01/09 04:00:01;;;;;;;18.30;10.33;;;;;;;;;;5118487;28;20434;-69
2021/01/09 04:02:28;;;;;;;14.53;9.83;;;;;;;;;;5107964;28;20505;-69
2021/01/09 04:04:54;;;;;;;14.10;9.50;;;;;;;;;;5107849;28;20489;-68
2021/01/09 04:07:22;;;;;;;13.30;8.97;;;;;;;;;;5107333;27;20463;-69
2021/01/09 04:09:48;;;;;;;15.47;10.00;;;;;;;;;;5097274;27;20448;-69
2021/01/09 04:12:15;;;;;;;16.57;9.73;;;;;;;;;;5105939;27;20451;-69
2021/01/09 04:14:41;;;;;;;15.30;10.20;;;;;;;;;;5104868;27;20807;-69
2021/01/09 04:17:08;;;;;;;17.97;10.70;;;;;;;;;;5112634;27;20438;-69
2021/01/09 04:19:34;;;;;;;15.03;10.20;;;;;;;;;;5108504;27;20455;-69
2021/01/09 04:22:01;;;;;;;20.23;12.23;;;;;;;;;;5107414;27;20844;-69
2021/01/09 04:24:28;;;;;;;14.80;10.17;;;;;;;;;;5117790;27;20475;-69
2021/01/09 04:26:55;;;;;;;15.43;10.17;;;;;;;;;;5109459;27;20965;-68
2021/01/09 04:29:22;;;;;;;16.50;10.33;;;;;;;;;;5111785;27;20947;-69
2021/01/09 04:31:49;;;;;;;15.57;10.47;;;;;;;;;;5106654;27;20459;-69
2021/01/09 04:34:16;;;;;;;16.83;9.87;;;;;;;;;;5110883;28;20462;-69
2021/01/09 04:36:42;;;;;;;17.20;10.90;;;;;;;;;;5108169;28;20918;-69
2021/01/09 04:39:09;;;;;;;18.23;10.83;;;;;;;;;;5108226;28;20467;-68
2021/01/09 04:41:37;;;;;;;18.30;10.83;;;;;;;;;;5104243;27;20446;-69
2021/01/09 04:44:04;;;;;;;19.53;10.27;;;;;;;;;;5108702;27;20478;-69
2021/01/09 04:46:32;;;;;;;16.73;10.43;;;;;;;;;;5115211;27;20451;-69
2021/01/09 04:48:59;;;;;;;18.40;9.97;;;;;;;;;;5109140;27;20882;-69
2021/01/09 04:51:27;;;;;;;14.70;10.07;;;;;;;;;;5104332;27;20463;-68
2021/01/09 04:53:54;;;;;;;16.30;9.53;;;;;;;;;;5111655;27;20451;-69
2021/01/09 04:56:21;;;;;;;16.50;10.60;;;;;;;;;;5112183;27;20451;-69
2021/01/09 04:58:48;;;;;;;15.03;9.97;;;;;;;;;;5111597;27;21076;-68
2021/01/09 05:01:15;;;;;;;17.50;11.03;;;;;;;;;;5112727;27;20442;-68
2021/01/09 05:03:41;;;;;;;16.20;10.07;;;;;;;;;;5110054;27;20474;-69
2021/01/09 05:06:08;;;;;;;18.03;11.13;;;;;;;;;;5095709;28;20983;-69
2021/01/09 05:08:35;;;;;;;18.90;11.20;;;;;;;;;;5103002;28;20494;-69
2021/01/09 05:11:03;;;;;;;16.57;10.00;;;;;;;;;;5108380;27;20495;-69
2021/01/09 05:13:30;;;;;;;16.00;9.43;;;;;;;;;;5101997;28;20461;-69
2021/01/09 05:15:58;;;;;;;12.50;9.30;;;;;;;;;;5109253;27;20443;-69
2021/01/09 05:18:24;;;;;;;17.30;11.07;;;;;;;;;;5106560;28;20480;-69
2021/01/09 05:20:51;;;;;;;14.87;9.83;;;;;;;;;;5104484;27;20451;-69
2021/01/09 05:23:18;;;;;;;18.50;10.90;;;;;;;;;;5114240;27;20474;-69
2021/01/09 05:25:46;;;;;;;19.30;10.93;;;;;;;;;;5104105;27;20534;-69
2021/01/09 05:28:12;;;;;;;16.40;11.43;;;;;;;;;;5110032;27;21009;-69
2021/01/09 05:30:42;;;;;;;16.20;10.47;;;;;;;;;;5110278;27;20439;-69
2021/01/09 05:33:10;;;;;;;14.67;10.10;;;;;;;;;;5101137;28;20814;-69
2021/01/09 05:35:36;;;;;;;14.73;10.20;;;;;;;;;;5106081;28;20467;-69
2021/01/09 05:38:03;;;;;;;17.90;10.37;;;;;;;;;;5117134;27;21097;-69
2021/01/09 05:40:30;;;;;;;16.57;10.17;;;;;;;;;;5108113;28;20439;-68
2021/01/09 05:43:07;;;;;;;16.53;11.40;;;;;;;;;;5110043;27;20592;-68
2021/01/09 05:45:33;;;;;;;14.23;10.27;;;;;;;;;;5110778;27;20443;-68
2021/01/09 05:48:01;;;;;;;12.67;9.47;;;;;;;;;;5104960;28;20479;-68
2021/01/09 05:50:29;;;;;;;17.80;10.87;;;;;;;;;;5095981;28;20464;-69
2021/01/09 05:52:56;;;;;;;13.43;10.30;;;;;;;;;;5104801;28;20530;-68
2021/01/09 05:55:22;;;;;;;17.73;10.27;;;;;;;;;;5106884;27;20455;-68
2021/01/09 05:57:52;;;;;;;17.50;10.40;;;;;;;;;;5110833;27;20893;-68
2021/01/09 06:00:22;;;;;;;17.20;11.50;;;;;;;;;;5111525;27;20450;-68
2021/01/09 06:02:56;;;;;;;15.90;11.47;;;;;;;;;;5105220;28;20462;-68
2021/01/09 06:05:23;;;;;;;14.17;10.97;;;;;;;;;;5105356;28;20458;-68
2021/01/09 06:07:52;;;;;;;16.63;10.43;;;;;;;;;;5107350;27;20471;-68
2021/01/09 06:10:21;;;;;;;20.50;11.53;;;;;;;;;;5111480;27;20448;-68
2021/01/09 06:12:57;;;;;;;16.33;10.13;;;;;;;;;;5110367;27;20858;-69
2021/01/09 06:15:25;;;;;;;19.43;11.60;;;;;;;;;;5104728;28;20447;-69
2021/01/09 06:17:52;;;;;;;17.90;10.10;;;;;;;;;;5106543;28;20474;-69
2021/01/09 06:20:19;;;;;;;22.57;11.13;;;;;;;;;;5104434;27;20455;-69
2021/01/09 06:22:46;;;;;;;19.17;11.60;;;;;;;;;;5103084;27;20465;-68
2021/01/09 06:25:13;;;;;;;17.90;10.73;;;;;;;;;;5115926;27;20485;-69
2021/01/09 06:27:41;;;;;;;16.07;10.87;;;;;;;;;;5104377;27;20486;-69
2021/01/09 06:30:10;;;;;;;17.87;11.80;;;;;;;;;;5109834;27;20465;-69
2021/01/09 06:32:38;;;;;;;17.90;11.20;;;;;;;;;;5107084;27;20462;-69
2021/01/09 06:35:05;;;;;;;16.20;10.63;;;;;;;;;;5106436;27;20514;-69
2021/01/09 06:37:32;;;;;;;19.00;11.00;;;;;;;;;;5107347;27;21431;-69
2021/01/09 06:39:59;;;;;;;24.53;12.00;;;;;;;;;;5107311;27;20469;-69
2021/01/09 06:42:27;;;;;;;19.03;12.40;;;;;;;;;;5108639;27;20465;-69
2021/01/09 06:44:54;;;;;;;19.33;12.70;;;;;;;;;;5113493;27;20474;-68
2021/01/09 06:47:25;;;;;;;18.27;11.00;;;;;;;;;;5112403;27;20471;-69
2021/01/09 06:49:51;;;;;;;17.47;12.70;;;;;;;;;;5107198;27;20500;-70
2021/01/09 06:52:18;;;;;;;19.33;11.43;;;;;;;;;;5106225;27;20465;-69
2021/01/09 06:54:45;;;;;;;17.60;11.27;;;;;;;;;;5108484;27;20439;-68
2021/01/09 06:57:16;;;;;;;19.23;11.73;;;;;;;;;;5108132;27;20469;-69
2021/01/09 06:59:44;;;;;;;17.87;11.00;;;;;;;;;;5103848;28;20980;-69
2021/01/09 07:02:17;;;;;;;24.13;14.30;;;;;;;;;;5106384;27;20493;-69
2021/01/09 07:04:57;;;;;;;20.50;12.50;;;;;;;;;;5103496;27;20480;-69
2021/01/09 07:07:25;;;;;;;22.20;13.17;;;;;;;;;;5105898;27;20474;-68
2021/01/09 07:09:52;;;;;;;24.90;12.80;;;;;;;;;;5103120;27;20950;-69
2021/01/09 07:12:18;;;;;;;23.10;14.20;;;;;;;;;;5103953;27;20811;-69
2021/01/09 07:14:46;;;;;;;24.27;14.00;;;;;;;;;;5101650;28;20443;-68
2021/01/09 07:17:13;;;;;;;24.27;14.20;;;;;;;;;;5103740;28;20440;-69
2021/01/09 07:19:42;;;;;;;24.50;15.30;;;;;;;;;;5100288;27;20454;-68
2021/01/09 07:22:10;;;;;;;25.03;15.07;;;;;;;;;;5101552;27;20509;-68
2021/01/09 07:24:39;;;;;;;23.20;13.60;;;;;;;;;;5105346;28;20479;-69
2021/01/09 07:27:07;;;;;;;20.70;13.40;;;;;;;;;;5106232;28;20442;-68
2021/01/09 07:29:39;;;;;;;24.30;14.07;;;;;;;;;;5108328;27;20480;-69
2021/01/09 07:32:07;;;;;;;22.13;13.37;;;;;;;;;;5100523;27;21226;-69
2021/01/09 07:34:34;;;;;;;25.70;13.80;;;;;;;;;;5107481;27;20451;-68
2021/01/09 07:37:00;;;;;;;24.27;13.70;;;;;;;;;;5111780;27;20500;-69
2021/01/09 07:39:27;;;;;;;21.03;13.83;;;;;;;;;;5106002;27;20813;-69
2021/01/09 07:41:55;;;;;;;23.97;14.70;;;;;;;;;;5110580;27;20456;-69
2021/01/09 07:44:23;;;;;;;24.43;14.47;;;;;;;;;;5109173;28;20471;-69
2021/01/09 07:46:50;;;;;;;24.10;14.80;;;;;;;;;;5106564;28;20593;-68
2021/01/09 07:49:26;;;;;;;25.13;14.83;;;;;;;;;;5110094;27;20484;-69
2021/01/09 07:51:53;;;;;;;21.60;12.50;;;;;;;;;;5098895;28;20466;-69
2021/01/09 07:54:29;;;;;;;20.03;12.03;;;;;;;;;;5104541;27;20440;-69
2021/01/09 07:56:56;;;;;;;24.20;13.27;;;;;;;;;;5102507;28;20470;-69
2021/01/09 07:59:22;;;;;;;19.53;11.70;;;;;;;;;;5111552;27;20448;-69
2021/01/09 08:01:49;;;;;;;17.17;11.93;;;;;;;;;;5100412;27;20512;-69
2021/01/09 08:04:16;;;;;;;19.00;12.00;;;;;;;;;;5100640;28;20487;-69
2021/01/09 08:06:43;;;;;;;23.57;13.00;;;;;;;;;;5107630;28;20456;-69
2021/01/09 08:09:10;;;;;;;21.03;12.23;;;;;;;;;;5096490;28;20462;-69
2021/01/09 08:11:41;;;;;;;19.20;12.00;;;;;;;;;;5109602;28;20444;-69
2021/01/09 08:14:07;;;;;;;18.37;11.50;;;;;;;;;;5107167;28;20446;-69
2021/01/09 08:16:34;;;;;;;18.90;11.97;;;;;;;;;;5106236;28;20465;-69
2021/01/09 08:19:16;;;;;;;22.63;12.83;;;;;;;;;;5103117;28;20470;-68
2021/01/09 08:21:46;;;;;;;20.73;12.97;;;;;;;;;;5104438;28;20485;-69
2021/01/09 08:24:21;;;;;;;25.20;13.90;;;;;;;;;;5102563;28;20871;-69
2021/01/09 08:26:50;;;;;;;22.43;13.37;;;;;;;;;;5095046;28;20513;-69
2021/01/09 08:29:17;;;;;;;21.93;14.07;;;;;;;;;;5108293;28;20485;-68
2021/01/09 08:31:43;;;;;;;22.80;13.30;;;;;;;;;;5102515;28;20453;-69
2021/01/09 08:34:10;;;;;;;26.30;14.30;;;;;;;;;;5102300;28;20447;-67
2021/01/09 08:36:37;;;;;;;30.60;17.97;;;;;;;;;;5103710;28;20464;-67
2021/01/09 08:39:08;;;;;;;28.60;17.53;;;;;;;;;;5105637;28;20466;-66
2021/01/09 08:41:38;;;;;;;24.30;16.20;;;;;;;;;;5102046;28;20443;-67
2021/01/09 08:44:08;;;;;;;26.83;16.10;;;;;;;;;;5104236;28;21061;-67
2021/01/09 08:46:35;;;;;;;26.90;14.87;;;;;;;;;;5104362;28;20540;-67
2021/01/09 08:49:02;;;;;;;25.77;15.50;;;;;;;;;;5106192;28;20465;-66
2021/01/09 08:51:30;;;;;;;23.23;14.50;;;;;;;;;;5110829;27;20967;-65
2021/01/09 08:53:57;;;;;;;24.20;14.43;;;;;;;;;;5103037;27;20455;-67
2021/01/09 08:56:27;;;;;;;26.00;15.37;;;;;;;;;;5108321;27;20443;-66
2021/01/09 08:58:54;;;;;;;29.37;15.80;;;;;;;;;;5109802;27;21042;-67
2021/01/09 09:01:22;;;;;;;24.30;14.97;;;;;;;;;;5107483;27;20467;-66
2021/01/09 09:03:49;;;;;;;26.53;14.70;;;;;;;;;;5107458;27;20478;-66
2021/01/09 09:06:17;;;;;;;27.47;17.10;;;;;;;;;;5108259;28;20471;-67
2021/01/09 09:08:44;;;;;;;25.33;16.13;;;;;;;;;;5107424;27;20524;-67
2021/01/09 09:11:11;;;;;;;27.60;17.20;;;;;;;;;;5108672;27;20458;-67
2021/01/09 09:13:38;;;;;;;22.30;14.77;;;;;;;;;;5112099;27;20451;-67
2021/01/09 09:16:18;;;;;;;24.03;15.87;;;;;;;;;;5110146;27;20439;-67
2021/01/09 09:18:45;;;;;;;22.63;15.43;;;;;;;;;;5105584;27;20479;-67
2021/01/09 09:21:11;;;;;;;26.87;16.30;;;;;;;;;;5106582;28;20982;-67
2021/01/09 09:23:38;;;;;;;42.37;15.10;;;;;;;;;;5112594;27;20483;-67
2021/01/09 09:26:11;;;;;;;24.80;16.93;;;;;;;;;;5112828;27;20468;-67
2021/01/09 09:28:49;;;;;;;21.67;15.70;;;;;;;;;;5108256;27;20486;-67
2021/01/09 09:31:23;;;;;;;18.63;13.40;;;;;;;;;;5110439;27;20450;-67
2021/01/09 09:33:56;;;;;;;21.10;15.27;;;;;;;;;;5109455;27;20461;-67
2021/01/09 09:36:23;;;;;;;22.27;14.37;;;;;;;;;;5107731;27;20459;-66
2021/01/09 09:38:50;;;;;;;20.03;14.47;;;;;;;;;;5109168;27;21127;-68
2021/01/09 09:41:16;;;;;;;23.87;15.53;;;;;;;;;;5106060;27;20453;-67
2021/01/09 09:43:53;;;;;;;26.60;15.93;;;;;;;;;;5108574;27;20579;-67
2021/01/09 09:46:20;;;;;;;21.97;15.20;;;;;;;;;;5112722;27;20446;-66
2021/01/09 09:48:47;;;;;;;21.20;15.20;;;;;;;;;;5106245;27;20480;-67
2021/01/09 09:51:14;;;;;;;25.07;14.90;;;;;;;;;;5103070;28;20510;-67
2021/01/09 09:53:42;;;;;;;27.37;16.27;;;;;;;;;;5106425;27;20966;-67
2021/01/09 09:56:13;;;;;;;24.83;15.53;;;;;;;;;;5109469;27;20898;-67
2021/01/09 09:58:39;;;;;;;20.70;15.00;;;;;;;;;;5114997;27;20470;-67
2021/01/09 10:01:15;;;;;;;21.00;15.57;;;;;;;;;;5110355;27;20448;-67
2021/01/09 10:03:43;;;;;;;22.90;14.97;;;;;;;;;;5112379;27;20470;-66
2021/01/09 10:06:10;;;;;;;22.57;15.93;;;;;;;;;;5107196;28;20967;-66
2021/01/09 10:08:36;;;;;;;25.10;15.90;;;;;;;;;;5109672;27;20750;-66
2021/01/09 10:11:03;;;;;;;22.93;16.23;;;;;;;;;;5107562;28;20516;-66
2021/01/09 10:13:30;;;;;;;23.53;14.47;;;;;;;;;;5103478;27;20549;-67
2021/01/09 10:15:57;;;;;;;23.37;16.30;;;;;;;;;;5115117;27;20448;-67
2021/01/09 10:18:24;;;;;;;24.27;17.07;;;;;;;;;;5107979;27;20497;-66
2021/01/09 10:20:51;;;;;;;22.90;15.70;;;;;;;;;;5100973;28;20502;-67
2021/01/09 10:23:18;;;;;;;29.00;18.33;;;;;;;;;;5112526;27;21172;-67
2021/01/09 10:25:45;;;;;;;28.33;16.67;;;;;;;;;;5109186;27;20443;-68
2021/01/09 10:28:11;;;;;;;26.20;15.70;;;;;;;;;;5105921;27;20482;-67
2021/01/09 10:30:38;;;;;;;26.10;16.57;;;;;;;;;;5107138;27;20479;-66
2021/01/09 10:33:05;;;;;;;25.97;17.67;;;;;;;;;;5105400;27;20505;-67
2021/01/09 10:35:32;;;;;;;24.00;16.07;;;;;;;;;;5102474;27;21095;-67
2021/01/09 10:37:59;;;;;;;23.13;15.77;;;;;;;;;;5108136;27;20483;-66
2021/01/09 10:40:26;;;;;;;26.37;17.63;;;;;;;;;;5107785;28;20443;-67
2021/01/09 10:42:52;;;;;;;27.47;16.00;;;;;;;;;;5109971;27;20458;-66
2021/01/09 10:45:19;;;;;;;25.87;17.20;;;;;;;;;;5103786;27;20478;-68
2021/01/09 10:47:46;;;;;;;24.00;17.70;;;;;;;;;;5105737;27;20983;-68
2021/01/09 10:50:12;;;;;;;25.50;16.63;;;;;;;;;;5109194;27;20554;-68
2021/01/09 10:52:40;;;;;;;25.30;15.80;;;;;;;;;;5108361;27;20455;-68
2021/01/09 10:55:08;;;;;;;25.07;16.33;;;;;;;;;;5110009;27;20451;-68
2021/01/09 10:57:34;;;;;;;28.57;15.77;;;;;;;;;;5102940;28;20466;-68
2021/01/09 11:00:01;;;;;;;17.20;12.00;;;;;;;;;;5107194;27;20455;-68
2021/01/09 11:02:28;;;;;;;20.40;12.37;;;;;;;;;;5112205;27;20551;-68
2021/01/09 11:04:55;;;;;;;16.70;11.13;;;;;;;;;;5112377;27;20490;-67
2021/01/09 11:07:22;;;;;;;14.93;10.47;;;;;;;;;;5113613;27;20478;-68
2021/01/09 11:09:48;;;;;;;14.30;10.13;;;;;;;;;;5105020;28;20455;-67
2021/01/09 11:12:16;;;;;;;19.40;11.10;;;;;;;;;;5108738;27;20451;-67
2021/01/09 11:14:42;;;;;;;18.63;13.03;;;;;;;;;;5112312;27;20443;-67
2021/01/09 11:17:09;;;;;;;20.20;13.17;;;;;;;;;;5107793;27;21188;-67
2021/01/09 11:19:35;;;;;;;12.80;9.23;;;;;;;;;;5104280;27;20457;-67
2021/01/09 11:22:02;;;;;;;11.03;7.70;;;;;;;;;;5108824;27;20455;-67
2021/01/09 11:24:32;;;;;;;9.40;6.33;;;;;;;;;;5105844;27;20479;-68
2021/01/09 11:26:59;;;;;;;12.97;8.17;;;;;;;;;;5104764;27;21024;-68
2021/01/09 11:29:27;;;;;;;10.13;6.70;;;;;;;;;;5108148;27;20447;-69
2021/01/09 11:31:57;;;;;;;8.50;6.80;;;;;;;;;;5107223;27;20451;-68
2021/01/09 11:34:24;;;;;;;8.23;6.63;;;;;;;;;;5105881;28;20877;-68
2021/01/09 11:36:50;;;;;;;10.37;7.20;;;;;;;;;;5100264;28;20904;-69
2021/01/09 11:39:17;;;;;;;10.93;7.53;;;;;;;;;;5110052;27;20542;-69
2021/01/09 11:41:44;;;;;;;10.00;7.87;;;;;;;;;;5106082;27;20469;-69
2021/01/09 11:44:10;;;;;;;9.53;7.00;;;;;;;;;;5101643;28;20935;-70
2021/01/09 11:46:38;;;;;;;15.00;8.80;;;;;;;;;;5099948;28;20463;-68
2021/01/09 11:49:05;;;;;;;13.60;8.77;;;;;;;;;;5097921;28;20480;-70
2021/01/09 11:51:31;;;;;;;11.57;7.93;;;;;;;;;;5098330;28;20487;-70
2021/01/09 11:53:58;;;;;;;10.90;8.30;;;;;;;;;;5098695;28;20447;-70
2021/01/09 11:56:24;;;;;;;13.47;8.37;;;;;;;;;;5095741;28;20482;-70
2021/01/09 11:58:51;;;;;;;15.07;9.13;;;;;;;;;;5092390;28;20806;-71
2021/01/09 12:01:18;;;;;;;17.80;11.30;;;;;;;;;;5094420;28;21277;-71
2021/01/09 12:03:45;;;;;;;16.67;11.10;;;;;;;;;;5095929;28;20574;-71
2021/01/09 12:06:17;;;;;;;18.03;10.63;;;;;;;;;;5094681;28;20458;-69
2021/01/09 12:08:43;;;;;;;16.00;11.40;;;;;;;;;;5098282;28;20479;-69
2021/01/09 12:11:10;;;;;;;15.07;10.27;;;;;;;;;;5098482;28;20491;-70
2021/01/09 12:13:37;;;;;;;15.43;11.70;;;;;;;;;;5095877;28;20460;-70
2021/01/09 12:16:04;;;;;;;16.47;11.53;;;;;;;;;;5094031;28;21130;-69
2021/01/09 12:18:32;;;;;;;23.30;12.90;;;;;;;;;;5094942;28;20483;-69
2021/01/09 12:20:59;;;;;;;16.83;11.47;;;;;;;;;;5094400;28;20542;-68
2021/01/09 12:23:26;;;;;;;20.73;15.20;;;;;;;;;;5098017;27;20462;-68
2021/01/09 12:25:53;;;;;;;17.97;12.20;;;;;;;;;;5099098;27;20543;-68
2021/01/09 12:28:20;;;;;;;17.07;10.87;;;;;;;;;;5101669;27;20470;-68
2021/01/09 12:30:48;;;;;;;18.00;11.40;;;;;;;;;;5100135;27;20891;-69
2021/01/09 12:33:15;;;;;;;18.80;11.57;;;;;;;;;;5100415;28;21129;-68
2021/01/09 12:35:41;;;;;;;20.27;11.67;;;;;;;;;;5097347;27;20459;-68
2021/01/09 12:38:09;;;;;;;19.80;11.90;;;;;;;;;;5100414;28;20486;-68
2021/01/09 12:40:35;;;;;;;20.50;12.33;;;;;;;;;;5098538;28;20462;-68
2021/01/09 12:43:02;;;;;;;18.30;12.03;;;;;;;;;;5096636;27;20830;-68
2021/01/09 12:45:29;;;;;;;18.83;12.43;;;;;;;;;;5097683;27;20479;-67
2021/01/09 12:47:56;;;;;;;18.43;11.93;;;;;;;;;;5099142;28;20493;-68
2021/01/09 12:50:22;;;;;;;16.73;10.60;;;;;;;;;;5096519;27;20504;-68
2021/01/09 12:52:49;;;;;;;17.20;11.00;;;;;;;;;;5097785;27;20455;-69
2021/01/09 12:55:16;;;;;;;17.90;12.17;;;;;;;;;;5102557;27;20569;-67
2021/01/09 12:57:43;;;;;;;19.00;11.57;;;;;;;;;;5101351;27;20486;-67
2021/01/09 13:00:10;;;;;;;18.63;12.43;;;;;;;;;;5099511;27;20484;-68
2021/01/09 13:02:38;;;;;;;21.90;11.70;;;;;;;;;;5102006;27;21106;-68
2021/01/09 13:05:05;;;;;;;16.27;10.23;;;;;;;;;;5100117;27;20479;-67
2021/01/09 13:07:31;;;;;;;16.50;11.10;;;;;;;;;;5102009;27;20478;-68
2021/01/09 13:09:58;;;;;;;15.93;10.73;;;;;;;;;;5095663;28;20478;-67
2021/01/09 13:12:26;;;;;;;18.57;10.77;;;;;;;;;;5097846;28;20454;-69
2021/01/09 13:14:52;;;;;;;18.23;10.20;;;;;;;;;;5099976;28;20463;-67
2021/01/09 13:17:21;;;;;;;18.33;11.60;;;;;;;;;;5097399;27;20486;-68
2021/01/09 13:19:48;;;;;;;18.90;12.47;;;;;;;;;;5102018;28;20986;-66
2021/01/09 13:22:14;;;;;;;22.30;11.83;;;;;;;;;;5099167;27;20452;-67
2021/01/09 13:24:41;;;;;;;12.77;8.23;;;;;;;;;;5100599;27;21048;-67
2021/01/09 13:27:07;;;;;;;19.20;10.10;;;;;;;;;;5100547;27;20456;-68
2021/01/09 13:29:36;;;;;;;17.87;11.30;;;;;;;;;;5101055;28;20837;-68
2021/01/09 13:32:02;;;;;;;16.40;11.43;;;;;;;;;;5097876;27;20459;-68
2021/01/09 13:34:29;;;;;;;15.17;10.97;;;;;;;;;;5098440;28;20467;-68
2021/01/09 13:36:55;;;;;;;14.53;10.43;;;;;;;;;;5099156;27;20516;-67
2021/01/09 13:39:22;;;;;;;16.40;12.00;;;;;;;;;;5098134;27;20514;-69
2021/01/09 13:41:49;;;;;;;21.43;11.80;;;;;;;;;;5097538;27;21198;-69
2021/01/09 13:44:15;;;;;;;19.93;12.10;;;;;;;;;;5098284;28;20485;-68
2021/01/09 13:46:43;;;;;;;17.27;11.30;;;;;;;;;;5096978;28;20837;-68
2021/01/09 13:49:10;;;;;;;15.93;10.30;;;;;;;;;;5099719;27;20490;-67
2021/01/09 13:51:37;;;;;;;16.67;10.80;;;;;;;;;;5097833;27;20459;-68
2021/01/09 13:54:04;;;;;;;20.23;12.77;;;;;;;;;;5096967;28;20538;-68
2021/01/09 13:56:35;;;;;;;19.90;12.50;;;;;;;;;;5099938;28;20474;-67
2021/01/09 13:59:01;;;;;;;19.27;12.80;;;;;;;;;;5100268;27;20475;-67
2021/01/09 14:01:28;;;;;;;18.03;12.50;;;;;;;;;;5096356;27;21013;-68
2021/01/09 14:03:55;;;;;;;16.97;12.13;;;;;;;;;;5096977;27;20513;-68
2021/01/09 14:06:22;;;;;;;18.77;10.80;;;;;;;;;;5098226;28;21270;-67
2021/01/09 14:08:49;;;;;;;19.77;12.40;;;;;;;;;;5100476;28;20482;-67
2021/01/09 14:11:18;;;;;;;18.27;12.37;;;;;;;;;;5097752;27;21589;-68
2021/01/09 14:13:45;;;;;;;18.60;11.40;;;;;;;;;;5096461;28;20526;-68
2021/01/09 14:16:11;;;;;;;22.63;12.30;;;;;;;;;;5096095;28;20451;-68
2021/01/09 14:18:38;;;;;;;19.80;12.80;;;;;;;;;;5099110;27;20497;-68
2021/01/09 14:21:07;;;;;;;21.20;13.30;;;;;;;;;;5096954;28;20459;-68
2021/01/09 14:23:34;;;;;;;18.13;11.70;;;;;;;;;;5096851;27;20987;-67